CheckWX is a tool to help pilots better visualize weather data.  It is not intended as a substitute for an official pre-flight weather briefing.

12:05:34 UTC

KCVN METAR
Clovis Municipal Airport
Clovis, New Mexico, USA
Current

1 hour ago

KCVN 261056Z AUTO 21006KT 10SM CLR 17/15 A3012 RMK AO2 SLP151 T01720150
Observed
Jun-26 @ 10:56 UTC
Wind
  • 210° at 6 KTS
Visibility
10 SM
Flight Rules
VFR
Cloud Levels
  • Clear skies
Temperature
17°C / 63°F
Dewpoint
15°C / 59°F
Humidity
88%
Altimeter
30.12" Hg
Pressure
1020.02 hPa
Previous

2 hours ago

KCVN 260956Z AUTO 18008KT 10SM CLR 18/16 A3012 RMK AO2 SLP149 T01830156
Observed
Jun-26 @ 09:56 UTC
Wind
  • 180° at 8 KTS
Visibility
10 SM
Flight Rules
VFR
Cloud Levels
  • Clear skies
Temperature
18°C / 64°F
Dewpoint
16°C / 61°F
Humidity
88%
Altimeter
30.12" Hg
Pressure
1020.02 hPa
Previous

3 hours ago

KCVN 260856Z AUTO 18009KT 10SM CLR 19/16 A3012 RMK AO2 SLP150 T01940156 50000
Observed
Jun-26 @ 08:56 UTC
Wind
  • 180° at 9 KTS
Visibility
10 SM
Flight Rules
VFR
Cloud Levels
  • Clear skies
Temperature
19°C / 66°F
Dewpoint
16°C / 61°F
Humidity
83%
Altimeter
30.12" Hg
Pressure
1020.02 hPa